Time;durP1;ratioP1;P1;durP2;ratioP2;P2;SDS_P1;SDS_P2;PMS_P1;PMS_P2;Temp;Humidity;BMP_temperature;BMP_pressure;BME280_temperature;BME280_humidity;BME280_pressure;Samples;Min_cycle;Max_cycle;Signal;HPM_P1;HPM_P2
2023/11/15 00:00:10;;;;;;;0.30;0.20;;;;;;;12.80;84.71;99587.72;5025092;28;20506;-50
2023/11/15 00:02:37;;;;;;;0.30;0.20;;;;;;;12.84;83.82;99586.63;5021809;28;21076;-50
2023/11/15 00:05:04;;;;;;;0.30;0.20;;;;;;;12.78;84.66;99600.25;5018763;28;20499;-49
2023/11/15 00:07:31;;;;;;;0.30;0.20;;;;;;;12.87;84.05;99597.97;5026362;28;20455;-50
2023/11/15 00:09:58;;;;;;;0.30;0.20;;;;;;;12.79;84.16;99607.31;5034676;28;20982;-50
2023/11/15 00:12:24;;;;;;;0.30;0.20;;;;;;;12.89;83.75;99604.13;5034649;28;20464;-49
2023/11/15 00:14:52;;;;;;;0.30;0.20;;;;;;;12.86;84.34;99611.41;5034641;28;20494;-49
2023/11/15 00:17:19;;;;;;;0.30;0.20;;;;;;;12.81;84.27;99600.09;5035298;28;20534;-50
2023/11/15 00:19:45;;;;;;;0.30;0.20;;;;;;;12.80;84.26;99593.91;5034736;28;20952;-50
2023/11/15 00:22:14;;;;;;;0.30;0.20;;;;;;;12.78;84.25;99600.25;5033623;28;20536;-49
2023/11/15 00:24:42;;;;;;;0.30;0.20;;;;;;;12.71;84.86;99600.53;5034535;28;20546;-50
2023/11/15 00:27:10;;;;;;;0.30;0.20;;;;;;;12.74;84.31;99597.72;5034533;28;20538;-49
2023/11/15 00:29:37;;;;;;;0.30;0.20;;;;;;;12.70;84.03;99600.63;5017041;28;20456;-49
2023/11/15 00:32:04;;;;;;;0.30;0.20;;;;;;;12.75;84.60;99606.63;5008730;28;20472;-49
2023/11/15 00:34:31;;;;;;;0.30;0.20;;;;;;;12.73;84.50;99601.31;5033528;28;20459;-49
2023/11/15 00:36:58;;;;;;;0.30;0.20;;;;;;;12.71;84.71;99600.53;5030792;28;20456;-50
2023/11/15 00:39:27;;;;;;;0.30;0.20;;;;;;;12.67;84.87;99603.44;5034364;28;20454;-50
2023/11/15 00:41:54;;;;;;;0.30;0.20;;;;;;;12.61;84.67;99599.28;5033903;28;20986;-49
2023/11/15 00:44:20;;;;;;;0.30;0.20;;;;;;;12.62;84.79;99617.00;5024160;28;20967;-50
2023/11/15 00:46:47;;;;;;;0.30;0.20;;;;;;;12.59;84.77;99616.25;5034229;28;20467;-49
2023/11/15 00:49:13;;;;;;;0.30;0.20;;;;;;;12.61;85.15;99630.38;5025577;28;20546;-50
2023/11/15 00:51:40;;;;;;;0.30;0.20;;;;;;;12.61;85.59;99639.28;5032196;28;20454;-51
2023/11/15 00:54:06;;;;;;;0.30;0.20;;;;;;;12.60;85.51;99634.84;5034545;28;20546;-49
2023/11/15 00:56:33;;;;;;;0.30;0.20;;;;;;;12.54;86.01;99640.47;5034065;28;20815;-51
2023/11/15 00:59:01;;;;;;;0.30;0.20;;;;;;;12.50;86.99;99649.56;5033892;28;20542;-50
2023/11/15 01:01:27;;;;;;;0.30;0.20;;;;;;;12.45;86.52;99660.44;5033920;28;20537;-49
2023/11/15 01:03:57;;;;;;;0.30;0.20;;;;;;;12.46;86.89;99664.81;5030101;28;20575;-50
2023/11/15 01:06:25;;;;;;;0.30;0.20;;;;;;;12.55;86.71;99660.88;5028560;28;20494;-50
2023/11/15 01:08:54;;;;;;;0.30;0.20;;;;;;;12.53;86.86;99673.41;5033784;28;20454;-49
2023/11/15 01:11:23;;;;;;;0.30;0.20;;;;;;;12.50;86.48;99668.22;5033769;28;20964;-50
2023/11/15 01:13:49;;;;;;;0.30;0.20;;;;;;;12.54;86.40;99682.28;5033822;28;20475;-50
2023/11/15 01:16:17;;;;;;;0.30;0.20;;;;;;;12.50;86.66;99686.88;5027974;28;20457;-50
2023/11/15 01:18:43;;;;;;;0.30;0.20;;;;;;;12.58;86.21;99678.53;5033855;28;20535;-50
2023/11/15 01:21:11;;;;;;;0.30;0.20;;;;;;;12.54;86.42;99669.81;5021022;28;20453;-50
2023/11/15 01:23:38;;;;;;;0.30;0.20;;;;;;;12.55;86.13;99681.34;5033341;28;20488;-50
2023/11/15 01:26:05;;;;;;;0.30;0.20;;;;;;;12.50;86.83;99675.38;5033293;28;20453;-50
2023/11/15 01:28:32;;;;;;;0.30;0.20;;;;;;;12.52;86.75;99693.00;5033595;28;20479;-49
2023/11/15 01:30:58;;;;;;;0.30;0.20;;;;;;;12.50;86.42;99696.69;5021748;28;20460;-49
2023/11/15 01:33:25;;;;;;;0.30;0.20;;;;;;;12.52;86.28;99703.69;5024682;28;20463;-49
2023/11/15 01:35:52;;;;;;;0.30;0.20;;;;;;;12.44;87.04;99706.69;5032351;28;20451;-50
2023/11/15 01:38:19;;;;;;;0.30;0.20;;;;;;;12.42;87.10;99713.88;5030084;28;20462;-50
2023/11/15 01:40:47;;;;;;;0.30;0.20;;;;;;;12.50;87.76;99716.22;5033243;28;20452;-50
2023/11/15 01:43:17;;;;;;;0.30;0.20;;;;;;;12.50;88.14;99713.56;5032824;28;21006;-50
2023/11/15 01:45:46;;;;;;;0.30;0.20;;;;;;;12.55;87.41;99721.31;5023241;28;20460;-50
2023/11/15 01:48:16;;;;;;;0.30;0.20;;;;;;;12.54;87.85;99730.25;5033109;28;20456;-49
2023/11/15 01:50:44;;;;;;;0.30;0.20;;;;;;;12.56;88.36;99726.59;5032924;28;20962;-50
2023/11/15 01:53:12;;;;;;;0.30;0.20;;;;;;;12.57;88.04;99728.31;5028041;28;20480;-50
2023/11/15 01:55:39;;;;;;;0.30;0.20;;;;;;;12.52;88.48;99737.47;5033025;28;20535;-50
2023/11/15 01:58:07;;;;;;;0.30;0.20;;;;;;;12.50;88.40;99742.88;5032903;28;20498;-50
2023/11/15 02:00:34;;;;;;;0.30;0.20;;;;;;;12.50;88.34;99744.69;5032907;28;20825;-50
2023/11/15 02:03:01;;;;;;;0.30;0.20;;;;;;;12.51;88.11;99751.72;5032563;28;20495;-50
2023/11/15 02:05:28;;;;;;;0.30;0.20;;;;;;;12.43;88.40;99763.59;5008078;28;20514;-49
2023/11/15 02:07:55;;;;;;;0.30;0.20;;;;;;;12.45;88.57;99759.06;5029679;28;20435;-50
2023/11/15 02:10:22;;;;;;;0.30;0.20;;;;;;;12.41;89.03;99762.81;5032758;28;20879;-50
2023/11/15 02:12:49;;;;;;;0.30;0.20;;;;;;;12.34;88.61;99757.81;5032491;28;20442;-50
2023/11/15 02:15:15;;;;;;;0.30;0.20;;;;;;;12.33;88.68;99772.06;5032297;28;20433;-49
2023/11/15 02:17:43;;;;;;;0.30;0.20;;;;;;;12.36;88.58;99761.28;5024308;28;20475;-49
2023/11/15 02:20:10;;;;;;;0.30;0.20;;;;;;;12.34;88.70;99771.16;5032307;28;20452;-50
2023/11/15 02:22:48;;;;;;;0.30;0.20;;;;;;;12.32;88.11;99779.19;5032179;28;20468;-49
2023/11/15 02:25:16;;;;;;;0.30;0.20;;;;;;;12.36;88.09;99779.94;5032397;28;20508;-49
2023/11/15 02:27:43;;;;;;;0.30;0.20;;;;;;;12.28;88.45;99788.25;5024980;28;20521;-49
2023/11/15 02:30:11;;;;;;;0.30;0.20;;;;;;;12.35;88.88;99789.75;5025133;28;20970;-49
2023/11/15 02:32:41;;;;;;;0.30;0.20;;;;;;;12.31;88.74;99784.59;5018596;28;20471;-50
2023/11/15 02:35:08;;;;;;;0.30;0.20;;;;;;;12.23;89.53;99789.41;5031410;28;20506;-49
2023/11/15 02:37:35;;;;;;;0.30;0.20;;;;;;;12.32;89.33;99794.31;5023710;28;20464;-50
2023/11/15 02:40:09;;;;;;;0.30;0.20;;;;;;;12.25;90.10;99787.53;5024443;28;20543;-49
2023/11/15 02:42:35;;;;;;;0.30;0.20;;;;;;;12.14;89.92;99790.66;5019889;28;21010;-49
2023/11/15 02:45:02;;;;;;;0.30;0.20;;;;;;;12.22;90.17;99809.00;5031718;28;20622;-50
2023/11/15 02:47:28;;;;;;;0.30;0.20;;;;;;;12.06;91.44;99811.41;5032163;28;20538;-49
2023/11/15 02:49:55;;;;;;;0.30;0.20;;;;;;;12.14;91.48;99810.16;5031882;28;20444;-51
2023/11/15 02:52:21;;;;;;;0.30;0.20;;;;;;;12.02;92.51;99815.16;5031697;28;20483;-50
2023/11/15 02:54:48;;;;;;;0.30;0.20;;;;;;;11.99;94.34;99813.50;5025743;28;20455;-49
2023/11/15 02:57:15;;;;;;;0.30;0.20;;;;;;;12.04;94.05;99816.81;5031724;28;20886;-49
2023/11/15 02:59:41;;;;;;;0.30;0.20;;;;;;;12.01;95.14;99816.94;5032079;28;20537;-47
2023/11/15 03:02:08;;;;;;;0.30;0.20;;;;;;;11.95;95.36;99838.53;5031829;28;20478;-48
2023/11/15 03:04:34;;;;;;;0.30;0.20;;;;;;;11.86;96.37;99831.78;5024148;28;20498;-47
2023/11/15 03:07:01;;;;;;;0.30;0.20;;;;;;;11.76;97.72;99824.19;5027894;28;20457;-48
2023/11/15 03:09:27;;;;;;;0.30;0.20;;;;;;;11.82;97.30;99821.31;5026000;28;20539;-48
2023/11/15 03:11:53;;;;;;;0.30;0.20;;;;;;;11.71;97.86;99827.03;5031549;28;20980;-48
2023/11/15 03:14:20;;;;;;;0.30;0.20;;;;;;;11.68;97.87;99828.97;5031304;28;20543;-48
2023/11/15 03:16:47;;;;;;;0.30;0.20;;;;;;;11.69;98.29;99830.72;5031691;28;20522;-48
2023/11/15 03:19:13;;;;;;;0.30;0.20;;;;;;;11.68;97.99;99837.81;5031648;28;20501;-48
2023/11/15 03:21:40;;;;;;;0.30;0.20;;;;;;;11.82;97.61;99848.81;5028141;28;21031;-48
2023/11/15 03:24:07;;;;;;;0.30;0.20;;;;;;;11.75;97.46;99852.59;5025999;28;20631;-47
2023/11/15 03:26:33;;;;;;;0.30;0.20;;;;;;;11.86;97.63;99855.75;5035615;28;20964;-48
2023/11/15 03:29:00;;;;;;;0.30;0.20;;;;;;;11.93;97.45;99859.03;5024107;28;20526;-48
2023/11/15 03:31:26;;;;;;;0.30;0.20;;;;;;;11.91;97.09;99860.88;5024792;28;20531;-47
2023/11/15 03:33:53;;;;;;;0.30;0.20;;;;;;;12.06;96.07;99870.03;5031790;28;20551;-47
2023/11/15 03:36:20;;;;;;;0.30;0.20;;;;;;;11.94;96.37;99876.75;5032984;28;20847;-49
2023/11/15 03:38:46;;;;;;;0.30;0.20;;;;;;;11.86;96.29;99884.16;5034148;28;20465;-48
2023/11/15 03:41:12;;;;;;;0.30;0.20;;;;;;;11.93;96.45;99885.66;5037846;28;20448;-47
2023/11/15 03:43:40;;;;;;;0.30;0.20;;;;;;;11.97;95.88;99889.94;5028622;28;20500;-48
2023/11/15 03:46:06;;;;;;;0.30;0.20;;;;;;;11.99;95.67;99900.53;5037900;28;20451;-48
2023/11/15 03:48:33;;;;;;;0.30;0.20;;;;;;;11.99;95.77;99898.72;5037859;28;20462;-48
2023/11/15 03:51:00;;;;;;;0.30;0.20;;;;;;;12.05;95.54;99897.59;5037930;28;20454;-48
2023/11/15 03:53:26;;;;;;;0.30;0.20;;;;;;;11.97;95.02;99908.59;5028928;28;20794;-47
2023/11/15 03:55:53;;;;;;;0.30;0.20;;;;;;;12.02;95.57;99908.38;5037815;28;20513;-48
2023/11/15 03:58:20;;;;;;;0.30;0.20;;;;;;;12.01;95.31;99917.31;5037453;28;20577;-48
2023/11/15 04:00:48;;;;;;;0.30;0.20;;;;;;;11.96;95.49;99930.81;5037910;28;20479;-48
2023/11/15 04:03:14;;;;;;;0.30;0.20;;;;;;;12.00;95.09;99921.78;5037566;28;20553;-48
2023/11/15 04:05:42;;;;;;;0.30;0.20;;;;;;;12.07;94.80;99933.06;5029708;28;20475;-48
2023/11/15 04:08:09;;;;;;;0.30;0.20;;;;;;;12.04;94.38;99949.16;5030100;28;20434;-48
2023/11/15 04:10:36;;;;;;;0.30;0.20;;;;;;;12.12;93.21;99944.38;5037650;28;20455;-48
2023/11/15 04:13:03;;;;;;;0.30;0.20;;;;;;;12.12;93.09;99947.06;5037691;28;20471;-48
2023/11/15 04:15:30;;;;;;;0.30;0.20;;;;;;;12.07;93.11;99949.91;5035548;28;20498;-48
2023/11/15 04:17:56;;;;;;;0.30;0.20;;;;;;;12.11;92.90;99951.50;5034232;28;20451;-48
2023/11/15 04:20:23;;;;;;;0.30;0.20;;;;;;;12.15;93.44;99950.44;5037683;28;20458;-48
2023/11/15 04:22:50;;;;;;;0.30;0.20;;;;;;;12.16;92.71;99957.50;5035143;28;20479;-48
2023/11/15 04:25:16;;;;;;;0.30;0.20;;;;;;;12.14;92.57;99961.19;5037327;28;20472;-48
2023/11/15 04:27:43;;;;;;;0.30;0.20;;;;;;;12.10;92.83;99971.09;5037625;28;20467;-48
2023/11/15 04:30:10;;;;;;;0.30;0.20;;;;;;;12.06;93.00;99971.25;5030776;28;20418;-48
2023/11/15 04:32:36;;;;;;;0.30;0.20;;;;;;;12.03;93.06;99971.38;5024216;28;20469;-48
2023/11/15 04:35:03;;;;;;;0.30;0.20;;;;;;;11.95;93.68;99976.16;5036315;28;20430;-48
2023/11/15 04:37:30;;;;;;;0.30;0.20;;;;;;;11.92;93.84;99974.47;5022714;28;20920;-47
2023/11/15 04:39:56;;;;;;;0.30;0.20;;;;;;;12.01;93.10;99978.56;5022001;28;20467;-48
2023/11/15 04:42:24;;;;;;;0.30;0.20;;;;;;;12.07;92.94;99978.34;5021976;28;20471;-48
2023/11/15 04:44:51;;;;;;;0.30;0.20;;;;;;;11.92;92.94;99977.13;5022224;28;20480;-48
2023/11/15 04:47:17;;;;;;;0.30;0.20;;;;;;;12.14;93.14;99982.50;5022542;28;20483;-48
2023/11/15 04:49:45;;;;;;;0.30;0.20;;;;;;;12.02;93.00;99983.84;5026544;28;20487;-48
2023/11/15 04:52:11;;;;;;;0.30;0.20;;;;;;;12.04;93.23;99986.44;5033776;28;20805;-48
2023/11/15 04:54:38;;;;;;;0.30;0.20;;;;;;;12.23;92.55;99986.59;5034076;28;20414;-48
2023/11/15 04:57:04;;;;;;;0.30;0.20;;;;;;;12.17;91.56;99993.03;5023680;28;20458;-48
2023/11/15 04:59:31;;;;;;;0.30;0.20;;;;;;;12.11;92.17;99995.94;5034073;28;20505;-48
2023/11/15 05:01:58;;;;;;;0.30;0.20;;;;;;;12.12;92.20;99987.88;5033745;28;21057;-48
2023/11/15 05:04:25;;;;;;;0.30;0.20;;;;;;;12.12;91.58;99995.88;5033243;28;20488;-48
2023/11/15 05:06:54;;;;;;;0.30;0.20;;;;;;;12.18;91.97;100000.09;5033723;28;20455;-48
2023/11/15 05:09:22;;;;;;;0.30;0.20;;;;;;;12.13;91.83;100007.41;5034026;28;20515;-48
2023/11/15 05:11:49;;;;;;;0.30;0.20;;;;;;;12.04;92.37;99997.09;5026762;28;20453;-48
2023/11/15 05:14:16;;;;;;;0.30;0.20;;;;;;;12.10;91.60;99997.75;5027074;28;20859;-48
2023/11/15 05:16:43;;;;;;;0.30;0.20;;;;;;;12.10;91.93;100004.88;5011636;28;20430;-48
2023/11/15 05:19:10;;;;;;;0.30;0.20;;;;;;;12.35;91.58;100010.09;5030865;28;20480;-48
2023/11/15 05:21:37;;;;;;;0.30;0.20;;;;;;;12.24;91.01;100017.66;5033443;28;20448;-48
2023/11/15 05:24:04;;;;;;;0.30;0.20;;;;;;;12.19;91.25;100014.28;5033619;28;20491;-48
2023/11/15 05:26:31;;;;;;;0.30;0.20;;;;;;;12.12;91.51;100016.31;5021442;28;20567;-48
2023/11/15 05:28:57;;;;;;;0.30;0.20;;;;;;;12.13;90.92;100029.59;5019240;28;21042;-48
2023/11/15 05:31:24;;;;;;;0.30;0.20;;;;;;;12.19;90.95;100028.47;5020157;28;20510;-48
2023/11/15 05:33:50;;;;;;;0.30;0.20;;;;;;;12.20;91.27;100035.56;5009949;28;20542;-48
2023/11/15 05:36:17;;;;;;;0.30;0.20;;;;;;;12.19;90.78;100041.78;5033143;28;20448;-48
2023/11/15 05:38:44;;;;;;;0.30;0.20;;;;;;;12.15;91.18;100043.72;5027739;28;20550;-48
2023/11/15 05:41:10;;;;;;;0.30;0.20;;;;;;;12.23;90.99;100051.41;5021265;28;20460;-49
2023/11/15 05:43:37;;;;;;;0.30;0.20;;;;;;;12.24;90.46;100053.16;5028780;28;20491;-48
2023/11/15 05:46:03;;;;;;;0.30;0.20;;;;;;;12.19;90.51;100063.09;5033050;28;20937;-48
2023/11/15 05:48:32;;;;;;;0.30;0.20;;;;;;;12.15;90.67;100064.16;5023658;28;20503;-48
2023/11/15 05:51:01;;;;;;;0.30;0.20;;;;;;;12.16;90.81;100063.22;5026387;28;20478;-48
2023/11/15 05:53:28;;;;;;;0.30;0.20;;;;;;;12.16;90.73;100060.56;5021866;28;20487;-48
2023/11/15 05:55:54;;;;;;;0.30;0.20;;;;;;;12.23;90.43;100063.88;5033191;28;20453;-48
2023/11/15 05:58:21;;;;;;;0.30;0.20;;;;;;;12.24;89.89;100070.94;5032765;28;20535;-48
2023/11/15 06:00:48;;;;;;;0.30;0.20;;;;;;;12.20;90.59;100071.97;5032859;28;20535;-48
2023/11/15 06:03:14;;;;;;;0.30;0.20;;;;;;;12.23;90.58;100075.41;5026565;28;21006;-48
2023/11/15 06:05:42;;;;;;;0.30;0.20;;;;;;;12.29;89.81;100080.47;5022508;28;21094;-48
2023/11/15 06:08:09;;;;;;;0.30;0.20;;;;;;;12.35;90.13;100074.06;5030355;28;20923;-48
2023/11/15 06:10:35;;;;;;;0.30;0.20;;;;;;;12.39;89.01;100079.19;5032736;28;20451;-48
2023/11/15 06:13:02;;;;;;;0.30;0.20;;;;;;;12.37;89.70;100081.06;5021218;28;20475;-48
2023/11/15 06:15:28;;;;;;;0.30;0.20;;;;;;;12.23;90.16;100077.19;5032609;28;20447;-48
2023/11/15 06:17:54;;;;;;;0.30;0.20;;;;;;;12.25;91.05;100081.53;5032404;28;20451;-47
2023/11/15 06:20:21;;;;;;;0.30;0.20;;;;;;;12.32;90.91;100084.81;5032433;28;20940;-48
2023/11/15 06:22:48;;;;;;;0.30;0.20;;;;;;;12.22;92.60;100083.47;5027857;28;20664;-48
2023/11/15 06:25:21;;;;;;;0.30;0.20;;;;;;;12.14;93.08;100083.75;5024367;28;20868;-48
2023/11/15 06:27:47;;;;;;;0.30;0.20;;;;;;;12.12;92.99;100091.78;5032277;28;20458;-47
2023/11/15 06:30:16;;;;;;;0.30;0.20;;;;;;;12.16;93.42;100088.06;5022805;28;21020;-47
2023/11/15 06:32:44;;;;;;;0.30;0.20;;;;;;;12.09;93.33;100093.72;5018674;28;20959;-47
2023/11/15 06:35:18;;;;;;;0.30;0.20;;;;;;;12.03;92.75;100108.13;5031325;28;21026;-47
2023/11/15 06:37:48;;;;;;;0.30;0.20;;;;;;;11.97;93.89;100108.38;5029019;28;20517;-48
2023/11/15 06:40:16;;;;;;;0.30;0.20;;;;;;;11.98;94.86;100114.56;5025759;28;20954;-48
2023/11/15 06:42:42;;;;;;;0.30;0.20;;;;;;;11.90;96.67;100109.50;5018478;28;20476;-48
2023/11/15 06:45:10;;;;;;;0.30;0.20;;;;;;;11.95;96.93;100088.91;5026218;28;21094;-48
2023/11/15 06:47:36;;;;;;;0.30;0.20;;;;;;;11.82;97.88;100087.63;5020948;28;20506;-48
2023/11/15 06:50:07;;;;;;;0.30;0.20;;;;;;;11.68;98.18;100092.56;5026197;28;20914;-48
2023/11/15 06:52:33;;;;;;;0.30;0.20;;;;;;;11.72;98.49;100092.38;5031983;28;20476;-48
2023/11/15 06:55:00;;;;;;;0.30;0.20;;;;;;;11.96;96.98;100095.09;5031785;28;20455;-48
2023/11/15 06:57:26;;;;;;;0.30;0.20;;;;;;;11.98;95.76;100085.25;5031704;28;20799;-47
2023/11/15 06:59:53;;;;;;;0.30;0.20;;;;;;;11.85;95.51;100116.81;5031528;28;20426;-47
2023/11/15 07:02:20;;;;;;;0.30;0.20;;;;;;;11.82;95.34;100119.59;5022671;28;20551;-47
2023/11/15 07:04:47;;;;;;;0.30;0.20;;;;;;;11.94;94.78;100123.59;5022555;28;20513;-53
2023/11/15 07:07:13;;;;;;;0.30;0.20;;;;;;;12.00;95.02;100136.69;5031773;28;20447;-48
2023/11/15 07:09:40;;;;;;;0.30;0.20;;;;;;;11.89;94.18;100139.72;5031570;28;20878;-48
2023/11/15 07:12:07;;;;;;;0.30;0.20;;;;;;;11.91;94.24;100140.53;5016629;28;20472;-48
2023/11/15 07:14:34;;;;;;;0.30;0.20;;;;;;;11.88;94.56;100143.31;5028055;28;20457;-48
2023/11/15 07:17:00;;;;;;;0.30;0.20;;;;;;;11.84;94.24;100145.22;5031123;28;20430;-47
2023/11/15 07:19:27;;;;;;;0.30;0.20;;;;;;;11.83;94.63;100138.16;5024495;28;20555;-47
2023/11/15 07:21:54;;;;;;;0.30;0.20;;;;;;;11.98;94.01;100144.72;5022122;28;20483;-48
2023/11/15 07:24:21;;;;;;;0.30;0.20;;;;;;;12.09;93.85;100150.53;5014811;28;20522;-48
2023/11/15 07:26:48;;;;;;;0.30;0.20;;;;;;;12.12;93.60;100149.53;5021415;28;20528;-48
2023/11/15 07:29:18;;;;;;;0.30;0.20;;;;;;;12.26;93.48;100152.56;5025034;28;20498;-48
2023/11/15 07:31:52;;;;;;;0.30;0.20;;;;;;;12.26;92.68;100149.91;5017879;28;20922;-48
2023/11/15 07:34:22;;;;;;;0.30;0.20;;;;;;;12.41;92.39;100151.97;5029411;28;20453;-48
2023/11/15 07:36:55;;;;;;;0.30;0.20;;;;;;;12.38;92.59;100156.56;5028887;28;20448;-48
2023/11/15 07:39:24;;;;;;;0.30;0.20;;;;;;;12.35;92.88;100148.69;5006169;28;20506;-48
2023/11/15 07:41:51;;;;;;;0.30;0.20;;;;;;;12.27;92.92;100148.97;5031303;28;20482;-48
2023/11/15 07:44:19;;;;;;;0.30;0.20;;;;;;;12.38;92.75;100149.44;5023241;28;20483;-48
2023/11/15 07:46:46;;;;;;;0.30;0.20;;;;;;;12.50;91.94;100160.56;5025869;28;20468;-49
2023/11/15 07:49:18;;;;;;;0.30;0.20;;;;;;;12.65;91.55;100167.97;5022919;28;20781;-48
2023/11/15 07:51:45;;;;;;;0.30;0.20;;;;;;;12.67;90.57;100171.44;5014720;28;20487;-50
2023/11/15 07:54:13;;;;;;;0.30;0.20;;;;;;;12.53;91.33;100171.97;5031519;28;20477;-48
2023/11/15 07:56:40;;;;;;;0.30;0.20;;;;;;;12.61;90.57;100177.88;5018286;28;20462;-48
2023/11/15 07:59:07;;;;;;;0.30;0.20;;;;;;;12.63;91.54;100183.16;5025132;28;20460;-48
2023/11/15 08:01:33;;;;;;;0.30;0.20;;;;;;;12.58;90.53;100179.78;5027893;28;20422;-48
2023/11/15 08:04:01;;;;;;;0.30;0.20;;;;;;;12.83;90.73;100183.22;5019319;28;20491;-48
2023/11/15 08:06:28;;;;;;;0.30;0.20;;;;;;;12.76;90.73;100181.75;5028623;28;20448;-48
2023/11/15 08:08:54;;;;;;;0.30;0.20;;;;;;;12.79;89.37;100192.28;5031460;28;20521;-48
2023/11/15 08:11:24;;;;;;;0.30;0.20;;;;;;;12.98;89.11;100187.09;5030853;28;20437;-48
2023/11/15 08:13:50;;;;;;;0.30;0.20;;;;;;;13.08;89.07;100199.13;5034787;28;20476;-48
2023/11/15 08:16:22;;;;;;;0.30;0.20;;;;;;;13.15;88.68;100197.06;5034976;28;20520;-47
2023/11/15 08:18:49;;;;;;;0.30;0.20;;;;;;;13.12;88.96;100207.88;5034726;28;20467;-47
2023/11/15 08:21:16;;;;;;;0.30;0.20;;;;;;;13.26;88.53;100201.09;5034786;28;20448;-48
2023/11/15 08:23:42;;;;;;;0.30;0.20;;;;;;;13.32;88.64;100202.66;5017083;28;20467;-48
2023/11/15 08:26:09;;;;;;;0.30;0.20;;;;;;;13.45;87.89;100211.91;5034533;28;20924;-48
2023/11/15 08:28:35;;;;;;;0.30;0.20;;;;;;;13.17;88.06;100217.47;5034521;28;20477;-48
2023/11/15 08:31:02;;;;;;;0.30;0.20;;;;;;;13.33;88.75;100229.28;5022533;28;20449;-48
2023/11/15 08:33:29;;;;;;;0.30;0.20;;;;;;;13.14;89.09;100230.91;5026187;28;20493;-48
2023/11/15 08:35:56;;;;;;;0.30;0.20;;;;;;;13.22;88.78;100225.31;5033421;28;20451;-48
2023/11/15 08:38:24;;;;;;;0.30;0.20;;;;;;;13.24;88.52;100216.31;5030943;28;20455;-48
2023/11/15 08:40:52;;;;;;;0.30;0.20;;;;;;;13.25;89.37;100226.03;5034333;28;20459;-48
2023/11/15 08:43:19;;;;;;;0.30;0.20;;;;;;;13.27;89.19;100228.66;5034238;28;20467;-48
2023/11/15 08:45:46;;;;;;;0.30;0.20;;;;;;;13.28;89.13;100235.72;5033952;28;20498;-48
2023/11/15 08:48:17;;;;;;;0.30;0.20;;;;;;;13.34;89.65;100239.03;5034161;28;20920;-48
2023/11/15 08:50:44;;;;;;;0.30;0.20;;;;;;;13.54;89.32;100240.88;5034291;28;20448;-48
2023/11/15 08:53:11;;;;;;;0.30;0.20;;;;;;;13.44;89.48;100233.31;5033917;28;20982;-48
2023/11/15 08:55:40;;;;;;;0.30;0.20;;;;;;;13.16;89.31;100231.75;5008089;28;20896;-47
2023/11/15 08:58:07;;;;;;;0.30;0.20;;;;;;;13.41;89.75;100233.41;5034428;28;20453;-47
2023/11/15 09:00:36;;;;;;;0.30;0.20;;;;;;;13.38;89.00;100249.56;5033905;28;20466;-46
2023/11/15 09:03:04;;;;;;;0.30;0.20;;;;;;;13.41;89.46;100233.41;5033975;28;20554;-48
2023/11/15 09:05:30;;;;;;;0.30;0.20;;;;;;;13.43;89.06;100244.91;5025759;28;20521;-47
2023/11/15 09:07:57;;;;;;;0.30;0.20;;;;;;;13.63;88.87;100243.16;5033726;28;20931;-47
2023/11/15 09:10:26;;;;;;;0.30;0.20;;;;;;;13.38;89.58;100247.78;5033845;28;20901;-47
2023/11/15 09:12:56;;;;;;;0.30;0.20;;;;;;;13.36;88.94;100254.13;5033520;28;20558;-47
2023/11/15 09:15:24;;;;;;;0.30;0.20;;;;;;;13.31;89.16;100257.84;5033702;28;20447;-47
2023/11/15 09:17:51;;;;;;;0.30;0.20;;;;;;;13.37;89.33;100254.03;5033762;28;20892;-47
2023/11/15 09:20:21;;;;;;;0.30;0.20;;;;;;;13.36;89.65;100248.78;5033681;28;20455;-47
2023/11/15 09:22:48;;;;;;;0.30;0.20;;;;;;;13.45;90.05;100259.97;5033205;28;20449;-47
2023/11/15 09:25:22;;;;;;;0.30;0.20;;;;;;;13.43;90.49;100260.94;5032582;28;20999;-48
2023/11/15 09:27:50;;;;;;;0.30;0.20;;;;;;;13.60;90.17;100266.47;5016634;28;20916;-47
2023/11/15 09:30:19;;;;;;;0.30;0.20;;;;;;;13.66;89.86;100263.53;5026472;28;20447;-48
2023/11/15 09:32:47;;;;;;;0.30;0.20;;;;;;;13.59;90.26;100264.72;5020125;28;20450;-48
2023/11/15 09:35:15;;;;;;;0.30;0.20;;;;;;;13.41;91.19;100274.34;5032625;28;20443;-46
2023/11/15 09:37:43;;;;;;;0.30;0.20;;;;;;;13.32;91.67;100266.72;5029570;28;20438;-47
2023/11/15 09:40:13;;;;;;;0.30;0.20;;;;;;;13.52;91.65;100271.25;5032974;28;21367;-48
2023/11/15 09:42:44;;;;;;;0.30;0.20;;;;;;;13.62;91.65;100273.47;5033377;28;20446;-48
2023/11/15 09:45:16;;;;;;;0.30;0.20;;;;;;;13.47;92.08;100270.56;5032950;28;21003;-47
2023/11/15 09:47:47;;;;;;;0.30;0.20;;;;;;;13.60;92.66;100269.13;5033242;28;20858;-46
2023/11/15 09:50:26;;;;;;;0.30;0.20;;;;;;;13.87;92.43;100284.00;5017490;28;20814;-46
2023/11/15 09:52:55;;;;;;;0.30;0.20;;;;;;;14.00;92.02;100278.16;5012718;28;20559;-48
2023/11/15 09:55:23;;;;;;;0.30;0.20;;;;;;;13.98;91.33;100283.56;4997256;28;20463;-48
2023/11/15 09:57:51;;;;;;;0.30;0.20;;;;;;;13.80;92.08;100279.84;5015788;28;20439;-47
2023/11/15 10:00:20;;;;;;;0.30;0.20;;;;;;;14.01;92.43;100280.75;5018553;28;20505;-47
2023/11/15 10:02:52;;;;;;;0.30;0.20;;;;;;;13.96;91.39;100289.88;5032886;28;20476;-47
2023/11/15 10:05:23;;;;;;;0.30;0.20;;;;;;;14.01;91.05;100285.22;5018431;28;21084;-46
2023/11/15 10:07:52;;;;;;;0.30;0.20;;;;;;;14.16;90.28;100284.56;5015074;28;20435;-47
2023/11/15 10:10:21;;;;;;;0.30;0.20;;;;;;;14.27;89.72;100290.31;5001063;28;20555;-47
2023/11/15 10:12:49;;;;;;;0.30;0.20;;;;;;;14.19;89.26;100284.44;5012959;28;20468;-47
2023/11/15 10:15:18;;;;;;;0.30;0.20;;;;;;;14.31;90.06;100288.38;5021437;28;20477;-47
2023/11/15 10:17:46;;;;;;;0.90;0.90;;;;;;;14.23;88.73;100280.69;5020578;28;20526;-48
2023/11/15 10:20:18;;;;;;;0.30;0.20;;;;;;;14.36;87.89;100284.56;5012995;28;20456;-47
2023/11/15 10:22:46;;;;;;;0.30;0.20;;;;;;;14.55;87.15;100283.78;4998796;28;20525;-49
2023/11/15 10:25:13;;;;;;;0.30;0.20;;;;;;;14.41;87.49;100273.66;5025900;28;20458;-47
2023/11/15 10:27:41;;;;;;;0.30;0.20;;;;;;;14.67;85.96;100280.56;5018286;28;20430;-48
2023/11/15 10:30:13;;;;;;;0.30;0.20;;;;;;;14.48;85.75;100278.69;5027839;28;20791;-47
2023/11/15 10:32:44;;;;;;;0.30;0.20;;;;;;;14.67;86.24;100281.44;5017526;28;20479;-46
2023/11/15 10:35:27;;;;;;;0.30;0.20;;;;;;;14.62;85.91;100282.56;5031008;28;20900;-47
2023/11/15 10:37:54;;;;;;;2.40;2.20;;;;;;;14.69;85.58;100276.00;5025913;28;20513;-48
2023/11/15 10:40:23;;;;;;;0.30;0.20;;;;;;;14.39;85.03;100275.50;5024278;28;20463;-47
2023/11/15 10:42:54;;;;;;;0.30;0.20;;;;;;;14.43;84.92;100272.66;5025311;28;20479;-47
2023/11/15 10:45:23;;;;;;;0.30;0.20;;;;;;;14.34;84.76;100282.88;5017759;28;20458;-46
2023/11/15 10:48:02;;;;;;;0.30;0.20;;;;;;;14.48;84.51;100280.50;5022098;28;20518;-48
2023/11/15 10:50:33;;;;;;;0.30;0.20;;;;;;;14.56;83.17;100282.84;5024009;28;20458;-47
2023/11/15 10:53:02;;;;;;;0.30;0.20;;;;;;;14.79;82.83;100270.13;5031359;28;20479;-48
2023/11/15 10:55:28;;;;;;;0.30;0.20;;;;;;;14.70;82.24;100269.72;5031653;28;20496;-48
2023/11/15 10:58:00;;;;;;;0.30;0.20;;;;;;;14.43;82.90;100278.00;5031685;28;20429;-47
2023/11/15 11:00:30;;;;;;;0.30;0.20;;;;;;;14.56;82.63;100278.38;5008904;28;20524;-47
2023/11/15 11:02:57;;;;;;;0.30;0.20;;;;;;;14.73;82.55;100278.47;5025192;28;20446;-48
2023/11/15 11:05:45;;;;;;;0.30;0.20;;;;;;;15.02;81.75;100271.75;5006355;28;20550;-48
2023/11/15 11:08:27;;;;;;;0.30;0.20;;;;;;;15.20;81.13;100272.66;5018173;28;20448;-48
2023/11/15 11:11:05;;;;;;;0.30;0.20;;;;;;;15.07;79.53;100263.47;5019472;28;20499;-48
2023/11/15 11:13:33;;;;;;;0.30;0.20;;;;;;;14.74;79.32;100274.84;5011774;28;20525;-48
2023/11/15 11:16:24;;;;;;;0.30;0.20;;;;;;;14.67;78.73;100261.84;5028243;28;20544;-47
2023/11/15 11:19:16;;;;;;;0.30;0.20;;;;;;;14.78;79.73;100276.44;5023620;28;20464;-47
2023/11/15 11:22:04;;;;;;;0.30;0.20;;;;;;;14.80;80.26;100266.53;4999858;28;20480;-47
2023/11/15 11:24:48;;;;;;;0.30;0.20;;;;;;;14.94;81.00;100265.00;5029304;28;20777;-47
2023/11/15 11:27:15;;;;;;;0.30;0.20;;;;;;;15.06;80.55;100267.97;5018908;28;20505;-49
2023/11/15 11:29:51;;;;;;;0.30;0.20;;;;;;;14.99;80.72;100263.88;5019047;28;20444;-51
2023/11/15 11:32:20;;;;;;;0.30;0.20;;;;;;;14.91;81.87;100268.69;5013366;28;20472;-49